sensor_id;sensor_type;location;lat;lon;timestamp;P1;durP1;ratioP1;P2;durP2;ratioP2
27491;SDS011;14927;51.210;6.838;2023-02-28T00:01:56;8.05;;;3.55;;
27491;SDS011;14927;51.210;6.838;2023-02-28T00:04:41;7.85;;;3.53;;
27491;SDS011;14927;51.210;6.838;2023-02-28T00:07:26;7.72;;;3.70;;
27491;SDS011;14927;51.210;6.838;2023-02-28T00:10:12;8.02;;;3.72;;
27491;SDS011;14927;51.210;6.838;2023-02-28T00:13:05;8.45;;;3.15;;
27491;SDS011;14927;51.210;6.838;2023-02-28T00:16:01;8.95;;;3.35;;
27491;SDS011;14927;51.210;6.838;2023-02-28T00:18:50;5.60;;;2.97;;
27491;SDS011;14927;51.210;6.838;2023-02-28T00:21:35;8.10;;;4.15;;
27491;SDS011;14927;51.210;6.838;2023-02-28T00:24:20;7.90;;;3.30;;
27491;SDS011;14927;51.210;6.838;2023-02-28T00:27:04;6.25;;;3.25;;
27491;SDS011;14927;51.210;6.838;2023-02-28T00:29:49;8.15;;;3.55;;
27491;SDS011;14927;51.210;6.838;2023-02-28T00:32:34;8.15;;;3.47;;
27491;SDS011;14927;51.210;6.838;2023-02-28T00:35:19;7.05;;;3.60;;
27491;SDS011;14927;51.210;6.838;2023-02-28T00:38:04;7.30;;;3.50;;
27491;SDS011;14927;51.210;6.838;2023-02-28T00:40:48;6.57;;;3.47;;
27491;SDS011;14927;51.210;6.838;2023-02-28T00:43:33;6.57;;;3.40;;
27491;SDS011;14927;51.210;6.838;2023-02-28T00:46:21;4.68;;;2.88;;
27491;SDS011;14927;51.210;6.838;2023-02-28T00:49:05;6.60;;;3.10;;
27491;SDS011;14927;51.210;6.838;2023-02-28T00:51:50;6.38;;;3.30;;
27491;SDS011;14927;51.210;6.838;2023-02-28T00:54:35;4.35;;;2.58;;
27491;SDS011;14927;51.210;6.838;2023-02-28T00:57:19;5.35;;;2.50;;
27491;SDS011;14927;51.210;6.838;2023-02-28T01:00:04;8.27;;;2.80;;
27491;SDS011;14927;51.210;6.838;2023-02-28T01:02:50;5.43;;;3.10;;
27491;SDS011;14927;51.210;6.838;2023-02-28T01:05:35;6.93;;;2.92;;
27491;SDS011;14927;51.210;6.838;2023-02-28T01:08:19;6.93;;;2.80;;
27491;SDS011;14927;51.210;6.838;2023-02-28T01:11:11;6.30;;;2.95;;
27491;SDS011;14927;51.210;6.838;2023-02-28T01:13:59;6.45;;;3.13;;
27491;SDS011;14927;51.210;6.838;2023-02-28T01:16:43;7.43;;;2.75;;
27491;SDS011;14927;51.210;6.838;2023-02-28T01:19:28;6.00;;;3.13;;
27491;SDS011;14927;51.210;6.838;2023-02-28T01:22:12;5.43;;;2.92;;
27491;SDS011;14927;51.210;6.838;2023-02-28T01:24:57;6.68;;;2.60;;
27491;SDS011;14927;51.210;6.838;2023-02-28T01:27:41;6.55;;;2.92;;
27491;SDS011;14927;51.210;6.838;2023-02-28T01:30:26;8.55;;;2.92;;
27491;SDS011;14927;51.210;6.838;2023-02-28T01:33:11;8.75;;;3.38;;
27491;SDS011;14927;51.210;6.838;2023-02-28T01:36:03;8.60;;;3.05;;
27491;SDS011;14927;51.210;6.838;2023-02-28T01:38:50;7.85;;;2.75;;
27491;SDS011;14927;51.210;6.838;2023-02-28T01:41:35;7.68;;;3.47;;
27491;SDS011;14927;51.210;6.838;2023-02-28T01:47:43;9.10;;;2.72;;
27491;SDS011;14927;51.210;6.838;2023-02-28T01:50:29;8.40;;;3.40;;
27491;SDS011;14927;51.210;6.838;2023-02-28T01:53:21;6.90;;;2.88;;
27491;SDS011;14927;51.210;6.838;2023-02-28T01:56:13;6.45;;;3.50;;
27491;SDS011;14927;51.210;6.838;2023-02-28T01:59:04;7.00;;;3.38;;
27491;SDS011;14927;51.210;6.838;2023-02-28T02:01:49;7.55;;;3.90;;
27491;SDS011;14927;51.210;6.838;2023-02-28T02:04:37;9.63;;;3.83;;
27491;SDS011;14927;51.210;6.838;2023-02-28T02:07:31;6.68;;;3.78;;
27491;SDS011;14927;51.210;6.838;2023-02-28T02:10:20;5.95;;;3.25;;
27491;SDS011;14927;51.210;6.838;2023-02-28T02:35:40;7.30;;;3.60;;
27491;SDS011;14927;51.210;6.838;2023-02-28T02:42:00;7.13;;;3.15;;
27491;SDS011;14927;51.210;6.838;2023-02-28T02:44:50;6.95;;;4.05;;
27491;SDS011;14927;51.210;6.838;2023-02-28T02:47:45;9.15;;;4.40;;
27491;SDS011;14927;51.210;6.838;2023-02-28T02:50:31;9.48;;;4.60;;
27491;SDS011;14927;51.210;6.838;2023-02-28T02:53:23;8.55;;;4.25;;
27491;SDS011;14927;51.210;6.838;2023-02-28T02:56:20;8.65;;;4.28;;
27491;SDS011;14927;51.210;6.838;2023-02-28T02:59:10;10.75;;;4.47;;
27491;SDS011;14927;51.210;6.838;2023-02-28T03:01:59;8.07;;;3.90;;
27491;SDS011;14927;51.210;6.838;2023-02-28T03:04:49;6.97;;;3.88;;
27491;SDS011;14927;51.210;6.838;2023-02-28T03:07:46;7.10;;;3.85;;
27491;SDS011;14927;51.210;6.838;2023-02-28T03:10:38;9.13;;;3.85;;
27491;SDS011;14927;51.210;6.838;2023-02-28T03:17:11;7.57;;;3.45;;
27491;SDS011;14927;51.210;6.838;2023-02-28T03:21:17;9.18;;;4.03;;
27491;SDS011;14927;51.210;6.838;2023-02-28T03:27:23;6.18;;;3.17;;
27491;SDS011;14927;51.210;6.838;2023-02-28T03:33:31;7.30;;;3.70;;
27491;SDS011;14927;51.210;6.838;2023-02-28T03:36:23;8.38;;;4.20;;
27491;SDS011;14927;51.210;6.838;2023-02-28T03:39:33;9.18;;;3.13;;
27491;SDS011;14927;51.210;6.838;2023-02-28T03:42:27;6.63;;;3.92;;
27491;SDS011;14927;51.210;6.838;2023-02-28T03:45:18;7.93;;;3.63;;
27491;SDS011;14927;51.210;6.838;2023-02-28T03:51:20;8.60;;;3.85;;
27491;SDS011;14927;51.210;6.838;2023-02-28T03:54:44;6.72;;;3.35;;
27491;SDS011;14927;51.210;6.838;2023-02-28T04:04:14;9.48;;;3.80;;
27491;SDS011;14927;51.210;6.838;2023-02-28T04:07:05;8.35;;;3.53;;
27491;SDS011;14927;51.210;6.838;2023-02-28T04:09:52;4.05;;;2.97;;
27491;SDS011;14927;51.210;6.838;2023-02-28T04:12:36;4.75;;;2.55;;
27491;SDS011;14927;51.210;6.838;2023-02-28T04:15:21;5.05;;;3.20;;
27491;SDS011;14927;51.210;6.838;2023-02-28T04:18:07;7.60;;;3.35;;
27491;SDS011;14927;51.210;6.838;2023-02-28T04:20:51;5.10;;;2.92;;
27491;SDS011;14927;51.210;6.838;2023-02-28T04:23:36;4.43;;;2.97;;
27491;SDS011;14927;51.210;6.838;2023-02-28T04:26:21;5.97;;;3.00;;
27491;SDS011;14927;51.210;6.838;2023-02-28T04:29:05;6.30;;;3.08;;
27491;SDS011;14927;51.210;6.838;2023-02-28T04:31:51;5.07;;;2.58;;
27491;SDS011;14927;51.210;6.838;2023-02-28T04:34:37;3.97;;;2.33;;
27491;SDS011;14927;51.210;6.838;2023-02-28T04:37:22;5.82;;;2.70;;
27491;SDS011;14927;51.210;6.838;2023-02-28T04:40:11;5.30;;;2.80;;
27491;SDS011;14927;51.210;6.838;2023-02-28T04:42:56;4.88;;;2.72;;
27491;SDS011;14927;51.210;6.838;2023-02-28T04:45:40;4.25;;;2.50;;
27491;SDS011;14927;51.210;6.838;2023-02-28T04:48:26;5.43;;;2.65;;
27491;SDS011;14927;51.210;6.838;2023-02-28T04:51:14;3.90;;;2.53;;
27491;SDS011;14927;51.210;6.838;2023-02-28T04:54:02;5.45;;;2.75;;
27491;SDS011;14927;51.210;6.838;2023-02-28T04:56:47;4.90;;;2.20;;
27491;SDS011;14927;51.210;6.838;2023-02-28T04:59:33;5.97;;;2.75;;
27491;SDS011;14927;51.210;6.838;2023-02-28T05:02:18;7.15;;;2.90;;
27491;SDS011;14927;51.210;6.838;2023-02-28T05:05:04;7.57;;;2.65;;
27491;SDS011;14927;51.210;6.838;2023-02-28T05:07:49;5.35;;;2.90;;
27491;SDS011;14927;51.210;6.838;2023-02-28T05:10:34;6.80;;;3.03;;
27491;SDS011;14927;51.210;6.838;2023-02-28T05:13:19;4.50;;;2.70;;
27491;SDS011;14927;51.210;6.838;2023-02-28T05:16:04;7.55;;;2.75;;
27491;SDS011;14927;51.210;6.838;2023-02-28T05:18:48;4.88;;;2.80;;
27491;SDS011;14927;51.210;6.838;2023-02-28T05:21:37;5.85;;;3.00;;
27491;SDS011;14927;51.210;6.838;2023-02-28T05:24:24;4.82;;;3.10;;
27491;SDS011;14927;51.210;6.838;2023-02-28T05:27:10;6.22;;;2.83;;
27491;SDS011;14927;51.210;6.838;2023-02-28T05:29:54;9.85;;;4.50;;
27491;SDS011;14927;51.210;6.838;2023-02-28T05:32:39;7.88;;;3.42;;
27491;SDS011;14927;51.210;6.838;2023-02-28T05:35:27;6.35;;;2.72;;
27491;SDS011;14927;51.210;6.838;2023-02-28T05:38:12;7.70;;;2.83;;
27491;SDS011;14927;51.210;6.838;2023-02-28T05:40:56;9.77;;;2.90;;
27491;SDS011;14927;51.210;6.838;2023-02-28T05:43:41;6.43;;;2.78;;
27491;SDS011;14927;51.210;6.838;2023-02-28T05:46:26;5.78;;;2.90;;
27491;SDS011;14927;51.210;6.838;2023-02-28T05:49:10;6.60;;;2.88;;
27491;SDS011;14927;51.210;6.838;2023-02-28T05:51:55;5.30;;;2.78;;
27491;SDS011;14927;51.210;6.838;2023-02-28T05:54:40;7.95;;;2.50;;
27491;SDS011;14927;51.210;6.838;2023-02-28T05:57:25;5.13;;;2.70;;
27491;SDS011;14927;51.210;6.838;2023-02-28T06:00:10;7.38;;;3.33;;
27491;SDS011;14927;51.210;6.838;2023-02-28T06:02:56;6.82;;;2.22;;
27491;SDS011;14927;51.210;6.838;2023-02-28T06:05:43;6.38;;;2.67;;
27491;SDS011;14927;51.210;6.838;2023-02-28T06:08:28;9.93;;;3.00;;
27491;SDS011;14927;51.210;6.838;2023-02-28T06:11:13;8.52;;;2.40;;
27491;SDS011;14927;51.210;6.838;2023-02-28T06:13:59;4.50;;;2.72;;
27491;SDS011;14927;51.210;6.838;2023-02-28T06:16:45;4.82;;;2.95;;
27491;SDS011;14927;51.210;6.838;2023-02-28T06:19:30;6.88;;;2.88;;
27491;SDS011;14927;51.210;6.838;2023-02-28T06:22:14;5.70;;;2.45;;
27491;SDS011;14927;51.210;6.838;2023-02-28T06:24:59;9.73;;;2.72;;
27491;SDS011;14927;51.210;6.838;2023-02-28T06:27:45;9.75;;;2.38;;
27491;SDS011;14927;51.210;6.838;2023-02-28T06:30:30;7.03;;;2.60;;
27491;SDS011;14927;51.210;6.838;2023-02-28T06:33:14;11.10;;;3.17;;
27491;SDS011;14927;51.210;6.838;2023-02-28T06:35:59;6.78;;;2.33;;
27491;SDS011;14927;51.210;6.838;2023-02-28T06:38:44;7.38;;;2.67;;
27491;SDS011;14927;51.210;6.838;2023-02-28T06:41:28;5.85;;;2.58;;
27491;SDS011;14927;51.210;6.838;2023-02-28T06:44:14;5.55;;;2.72;;
27491;SDS011;14927;51.210;6.838;2023-02-28T06:47:01;9.27;;;2.47;;
27491;SDS011;14927;51.210;6.838;2023-02-28T06:49:47;3.90;;;2.30;;
27491;SDS011;14927;51.210;6.838;2023-02-28T06:52:32;7.70;;;2.17;;
27491;SDS011;14927;51.210;6.838;2023-02-28T06:55:19;6.43;;;2.63;;
27491;SDS011;14927;51.210;6.838;2023-02-28T06:58:04;6.50;;;2.42;;
27491;SDS011;14927;51.210;6.838;2023-02-28T07:01:00;3.63;;;1.83;;
27491;SDS011;14927;51.210;6.838;2023-02-28T07:03:45;8.25;;;2.72;;
27491;SDS011;14927;51.210;6.838;2023-02-28T07:06:30;4.78;;;2.30;;
27491;SDS011;14927;51.210;6.838;2023-02-28T07:09:15;6.28;;;2.45;;
27491;SDS011;14927;51.210;6.838;2023-02-28T07:12:01;4.88;;;2.45;;
27491;SDS011;14927;51.210;6.838;2023-02-28T07:14:46;6.78;;;2.90;;
27491;SDS011;14927;51.210;6.838;2023-02-28T07:17:30;6.20;;;2.55;;
27491;SDS011;14927;51.210;6.838;2023-02-28T07:20:15;63.45;;;7.68;;
27491;SDS011;14927;51.210;6.838;2023-02-28T07:23:00;35.65;;;4.32;;
27491;SDS011;14927;51.210;6.838;2023-02-28T07:25:46;7.90;;;3.55;;
27491;SDS011;14927;51.210;6.838;2023-02-28T07:28:33;7.43;;;2.95;;
27491;SDS011;14927;51.210;6.838;2023-02-28T07:31:18;7.40;;;2.58;;
27491;SDS011;14927;51.210;6.838;2023-02-28T07:34:03;5.43;;;2.67;;
27491;SDS011;14927;51.210;6.838;2023-02-28T07:36:48;4.68;;;2.47;;
27491;SDS011;14927;51.210;6.838;2023-02-28T07:39:32;12.48;;;3.40;;
27491;SDS011;14927;51.210;6.838;2023-02-28T07:42:17;5.55;;;2.28;;
27491;SDS011;14927;51.210;6.838;2023-02-28T07:45:02;2.72;;;2.10;;
27491;SDS011;14927;51.210;6.838;2023-02-28T07:47:47;4.22;;;2.20;;
27491;SDS011;14927;51.210;6.838;2023-02-28T07:50:32;4.32;;;2.20;;
27491;SDS011;14927;51.210;6.838;2023-02-28T07:53:16;20.77;;;4.70;;
27491;SDS011;14927;51.210;6.838;2023-02-28T07:56:01;7.35;;;2.83;;
27491;SDS011;14927;51.210;6.838;2023-02-28T07:58:47;4.65;;;2.78;;
27491;SDS011;14927;51.210;6.838;2023-02-28T08:01:31;3.33;;;2.10;;
27491;SDS011;14927;51.210;6.838;2023-02-28T08:04:19;9.95;;;2.47;;
27491;SDS011;14927;51.210;6.838;2023-02-28T08:07:03;4.93;;;2.13;;
27491;SDS011;14927;51.210;6.838;2023-02-28T08:09:48;3.70;;;2.03;;
27491;SDS011;14927;51.210;6.838;2023-02-28T08:12:34;4.70;;;2.13;;
27491;SDS011;14927;51.210;6.838;2023-02-28T08:15:19;5.15;;;2.45;;
27491;SDS011;14927;51.210;6.838;2023-02-28T08:18:03;5.72;;;2.20;;
27491;SDS011;14927;51.210;6.838;2023-02-28T08:20:48;6.32;;;2.67;;
27491;SDS011;14927;51.210;6.838;2023-02-28T08:23:33;4.32;;;2.40;;
27491;SDS011;14927;51.210;6.838;2023-02-28T08:26:19;5.20;;;2.30;;
27491;SDS011;14927;51.210;6.838;2023-02-28T08:29:04;4.45;;;3.00;;
27491;SDS011;14927;51.210;6.838;2023-02-28T08:31:49;4.35;;;1.77;;
27491;SDS011;14927;51.210;6.838;2023-02-28T08:34:34;5.28;;;2.47;;
27491;SDS011;14927;51.210;6.838;2023-02-28T08:37:18;4.05;;;2.40;;
27491;SDS011;14927;51.210;6.838;2023-02-28T08:40:04;2.83;;;2.10;;
27491;SDS011;14927;51.210;6.838;2023-02-28T08:42:49;5.25;;;2.58;;
27491;SDS011;14927;51.210;6.838;2023-02-28T08:45:34;5.20;;;1.95;;
27491;SDS011;14927;51.210;6.838;2023-02-28T08:48:18;5.05;;;2.10;;
27491;SDS011;14927;51.210;6.838;2023-02-28T08:51:05;5.03;;;1.75;;
27491;SDS011;14927;51.210;6.838;2023-02-28T08:53:59;10.05;;;1.50;;
27491;SDS011;14927;51.210;6.838;2023-02-28T08:56:45;8.63;;;2.03;;
27491;SDS011;14927;51.210;6.838;2023-02-28T08:59:31;4.53;;;1.50;;
27491;SDS011;14927;51.210;6.838;2023-02-28T09:02:15;3.65;;;1.38;;
27491;SDS011;14927;51.210;6.838;2023-02-28T09:05:00;2.22;;;1.50;;
27491;SDS011;14927;51.210;6.838;2023-02-28T09:07:45;4.53;;;1.73;;
27491;SDS011;14927;51.210;6.838;2023-02-28T09:10:29;3.05;;;1.50;;
27491;SDS011;14927;51.210;6.838;2023-02-28T09:13:14;2.50;;;1.40;;
27491;SDS011;14927;51.210;6.838;2023-02-28T09:15:59;3.13;;;1.60;;
27491;SDS011;14927;51.210;6.838;2023-02-28T09:18:46;8.43;;;1.27;;
27491;SDS011;14927;51.210;6.838;2023-02-28T09:21:30;3.10;;;1.20;;
27491;SDS011;14927;51.210;6.838;2023-02-28T09:24:15;2.40;;;1.30;;
27491;SDS011;14927;51.210;6.838;2023-02-28T09:26:59;3.67;;;1.08;;
27491;SDS011;14927;51.210;6.838;2023-02-28T09:29:44;1.90;;;1.38;;
27491;SDS011;14927;51.210;6.838;2023-02-28T09:32:29;4.28;;;1.50;;
27491;SDS011;14927;51.210;6.838;2023-02-28T09:35:13;1.65;;;1.08;;
27491;SDS011;14927;51.210;6.838;2023-02-28T09:38:00;6.25;;;1.60;;
27491;SDS011;14927;51.210;6.838;2023-02-28T09:40:48;2.20;;;1.33;;
27491;SDS011;14927;51.210;6.838;2023-02-28T09:43:46;2.70;;;1.50;;
27491;SDS011;14927;51.210;6.838;2023-02-28T09:46:44;8.40;;;1.75;;
27491;SDS011;14927;51.210;6.838;2023-02-28T09:49:37;1.73;;;1.30;;
27491;SDS011;14927;51.210;6.838;2023-02-28T09:52:30;3.35;;;1.70;;
27491;SDS011;14927;51.210;6.838;2023-02-28T10:11:01;1.73;;;1.15;;
27491;SDS011;14927;51.210;6.838;2023-02-28T10:17:14;2.33;;;1.27;;
27491;SDS011;14927;51.210;6.838;2023-02-28T10:20:10;1.60;;;0.98;;
27491;SDS011;14927;51.210;6.838;2023-02-28T10:26:09;3.10;;;1.30;;
27491;SDS011;14927;51.210;6.838;2023-02-28T10:28:59;1.33;;;0.80;;
27491;SDS011;14927;51.210;6.838;2023-02-28T10:31:44;1.98;;;1.38;;
27491;SDS011;14927;51.210;6.838;2023-02-28T10:34:29;2.28;;;1.25;;
27491;SDS011;14927;51.210;6.838;2023-02-28T10:37:13;2.45;;;0.98;;
27491;SDS011;14927;51.210;6.838;2023-02-28T10:39:59;2.10;;;0.98;;
27491;SDS011;14927;51.210;6.838;2023-02-28T10:43:03;2.60;;;0.90;;
27491;SDS011;14927;51.210;6.838;2023-02-28T10:49:02;3.50;;;1.30;;
27491;SDS011;14927;51.210;6.838;2023-02-28T10:51:52;7.28;;;1.60;;
27491;SDS011;14927;51.210;6.838;2023-02-28T10:54:42;2.38;;;1.30;;
27491;SDS011;14927;51.210;6.838;2023-02-28T10:57:27;3.08;;;1.33;;
27491;SDS011;14927;51.210;6.838;2023-02-28T11:03:09;2.53;;;1.42;;
27491;SDS011;14927;51.210;6.838;2023-02-28T11:06:20;3.45;;;1.42;;
27491;SDS011;14927;51.210;6.838;2023-02-28T11:09:22;4.00;;;1.27;;
27491;SDS011;14927;51.210;6.838;2023-02-28T11:12:20;1.73;;;0.90;;
27491;SDS011;14927;51.210;6.838;2023-02-28T11:15:28;1.67;;;1.15;;
27491;SDS011;14927;51.210;6.838;2023-02-28T11:18:21;2.47;;;1.13;;
27491;SDS011;14927;51.210;6.838;2023-02-28T11:21:23;3.97;;;1.27;;
27491;SDS011;14927;51.210;6.838;2023-02-28T11:24:31;2.17;;;1.30;;
27491;SDS011;14927;51.210;6.838;2023-02-28T11:27:26;1.05;;;0.90;;
27491;SDS011;14927;51.210;6.838;2023-02-28T11:30:35;2.40;;;1.55;;
27491;SDS011;14927;51.210;6.838;2023-02-28T11:33:49;4.25;;;1.20;;
27491;SDS011;14927;51.210;6.838;2023-02-28T11:36:39;2.33;;;1.23;;
27491;SDS011;14927;51.210;6.838;2023-02-28T11:39:29;2.42;;;1.23;;
27491;SDS011;14927;51.210;6.838;2023-02-28T11:45:36;1.73;;;1.20;;
27491;SDS011;14927;51.210;6.838;2023-02-28T11:48:33;5.97;;;1.33;;
27491;SDS011;14927;51.210;6.838;2023-02-28T11:51:48;2.22;;;1.25;;
27491;SDS011;14927;51.210;6.838;2023-02-28T11:57:51;3.28;;;1.40;;
27491;SDS011;14927;51.210;6.838;2023-02-28T12:04:38;3.03;;;1.17;;
27491;SDS011;14927;51.210;6.838;2023-02-28T12:07:47;2.80;;;1.23;;
27491;SDS011;14927;51.210;6.838;2023-02-28T12:17:57;5.40;;;1.35;;
27491;SDS011;14927;51.210;6.838;2023-02-28T12:21:04;4.38;;;1.33;;
27491;SDS011;14927;51.210;6.838;2023-02-28T12:27:50;1.38;;;1.27;;
27491;SDS011;14927;51.210;6.838;2023-02-28T12:30:41;1.95;;;1.48;;
27491;SDS011;14927;51.210;6.838;2023-02-28T12:33:42;1.40;;;1.30;;
27491;SDS011;14927;51.210;6.838;2023-02-28T12:36:32;2.30;;;1.60;;
27491;SDS011;14927;51.210;6.838;2023-02-28T12:39:23;6.93;;;1.40;;
27491;SDS011;14927;51.210;6.838;2023-02-28T12:42:26;3.83;;;1.77;;
27491;SDS011;14927;51.210;6.838;2023-02-28T12:45:23;2.35;;;1.80;;
27491;SDS011;14927;51.210;6.838;2023-02-28T12:48:18;1.80;;;1.50;;
27491;SDS011;14927;51.210;6.838;2023-02-28T12:51:27;3.42;;;1.30;;
27491;SDS011;14927;51.210;6.838;2023-02-28T12:54:19;2.90;;;1.20;;
27491;SDS011;14927;51.210;6.838;2023-02-28T13:00:21;2.97;;;2.03;;
27491;SDS011;14927;51.210;6.838;2023-02-28T13:09:44;1.95;;;1.20;;
27491;SDS011;14927;51.210;6.838;2023-02-28T13:12:47;2.08;;;1.08;;
27491;SDS011;14927;51.210;6.838;2023-02-28T13:15:35;2.15;;;1.60;;
27491;SDS011;14927;51.210;6.838;2023-02-28T13:18:28;2.13;;;1.23;;
27491;SDS011;14927;51.210;6.838;2023-02-28T13:21:26;2.03;;;1.35;;
27491;SDS011;14927;51.210;6.838;2023-02-28T13:24:36;3.42;;;1.55;;
27491;SDS011;14927;51.210;6.838;2023-02-28T13:27:22;2.00;;;1.30;;
27491;SDS011;14927;51.210;6.838;2023-02-28T13:36:41;3.20;;;1.30;;
27491;SDS011;14927;51.210;6.838;2023-02-28T13:42:32;2.45;;;1.20;;
27491;SDS011;14927;51.210;6.838;2023-02-28T13:45:26;4.30;;;1.40;;
27491;SDS011;14927;51.210;6.838;2023-02-28T13:48:15;2.25;;;1.17;;
27491;SDS011;14927;51.210;6.838;2023-02-28T13:54:29;2.05;;;1.60;;
27491;SDS011;14927;51.210;6.838;2023-02-28T13:57:30;6.15;;;1.30;;
27491;SDS011;14927;51.210;6.838;2023-02-28T14:06:25;1.40;;;1.30;;
27491;SDS011;14927;51.210;6.838;2023-02-28T14:09:35;2.10;;;1.10;;
27491;SDS011;14927;51.210;6.838;2023-02-28T14:15:48;3.17;;;1.95;;
27491;SDS011;14927;51.210;6.838;2023-02-28T14:38:52;2.50;;;1.10;;
27491;SDS011;14927;51.210;6.838;2023-02-28T14:41:43;1.92;;;1.17;;
27491;SDS011;14927;51.210;6.838;2023-02-28T14:44:30;2.70;;;1.17;;
27491;SDS011;14927;51.210;6.838;2023-02-28T14:47:15;3.05;;;1.48;;
27491;SDS011;14927;51.210;6.838;2023-02-28T14:50:01;3.13;;;1.20;;
27491;SDS011;14927;51.210;6.838;2023-02-28T14:52:49;5.22;;;1.33;;
27491;SDS011;14927;51.210;6.838;2023-02-28T14:55:36;1.80;;;1.15;;
27491;SDS011;14927;51.210;6.838;2023-02-28T14:58:23;2.17;;;1.35;;
27491;SDS011;14927;51.210;6.838;2023-02-28T15:01:14;4.13;;;1.42;;
27491;SDS011;14927;51.210;6.838;2023-02-28T15:04:06;2.35;;;1.30;;
27491;SDS011;14927;51.210;6.838;2023-02-28T15:07:33;2.67;;;1.05;;
27491;SDS011;14927;51.210;6.838;2023-02-28T15:10:09;3.10;;;1.38;;
27491;SDS011;14927;51.210;6.838;2023-02-28T15:13:10;2.25;;;1.38;;
27491;SDS011;14927;51.210;6.838;2023-02-28T15:15:59;2.53;;;1.63;;
27491;SDS011;14927;51.210;6.838;2023-02-28T15:19:23;6.18;;;1.55;;
27491;SDS011;14927;51.210;6.838;2023-02-28T15:22:14;2.13;;;1.30;;
27491;SDS011;14927;51.210;6.838;2023-02-28T15:25:05;3.95;;;1.30;;
27491;SDS011;14927;51.210;6.838;2023-02-28T15:27:52;2.70;;;1.60;;
27491;SDS011;14927;51.210;6.838;2023-02-28T15:30:39;4.53;;;1.70;;
27491;SDS011;14927;51.210;6.838;2023-02-28T15:33:35;2.05;;;1.42;;
27491;SDS011;14927;51.210;6.838;2023-02-28T15:36:19;3.25;;;1.65;;
27491;SDS011;14927;51.210;6.838;2023-02-28T15:39:20;2.47;;;1.20;;
27491;SDS011;14927;51.210;6.838;2023-02-28T15:42:12;2.15;;;1.42;;
27491;SDS011;14927;51.210;6.838;2023-02-28T15:45:04;3.63;;;1.63;;
27491;SDS011;14927;51.210;6.838;2023-02-28T15:47:49;4.45;;;1.98;;
27491;SDS011;14927;51.210;6.838;2023-02-28T15:50:34;2.55;;;1.75;;
27491;SDS011;14927;51.210;6.838;2023-02-28T15:53:21;2.67;;;1.83;;
27491;SDS011;14927;51.210;6.838;2023-02-28T15:59:28;3.00;;;1.58;;
27491;SDS011;14927;51.210;6.838;2023-02-28T16:02:19;1.75;;;1.33;;
27491;SDS011;14927;51.210;6.838;2023-02-28T16:07:55;5.90;;;1.80;;
27491;SDS011;14927;51.210;6.838;2023-02-28T16:10:42;2.33;;;1.70;;
27491;SDS011;14927;51.210;6.838;2023-02-28T16:13:26;7.15;;;1.80;;
27491;SDS011;14927;51.210;6.838;2023-02-28T16:16:15;2.80;;;1.98;;
27491;SDS011;14927;51.210;6.838;2023-02-28T16:19:07;2.83;;;1.70;;
27491;SDS011;14927;51.210;6.838;2023-02-28T16:21:52;3.67;;;1.73;;
27491;SDS011;14927;51.210;6.838;2023-02-28T16:24:36;2.42;;;1.70;;
27491;SDS011;14927;51.210;6.838;2023-02-28T16:27:28;2.92;;;2.22;;
27491;SDS011;14927;51.210;6.838;2023-02-28T16:30:21;6.95;;;1.95;;
27491;SDS011;14927;51.210;6.838;2023-02-28T16:33:09;6.35;;;2.15;;
27491;SDS011;14927;51.210;6.838;2023-02-28T16:35:54;5.10;;;2.17;;
27491;SDS011;14927;51.210;6.838;2023-02-28T16:38:38;4.63;;;1.95;;
27491;SDS011;14927;51.210;6.838;2023-02-28T16:41:24;4.22;;;1.75;;
27491;SDS011;14927;51.210;6.838;2023-02-28T16:44:27;2.95;;;2.20;;
27491;SDS011;14927;51.210;6.838;2023-02-28T16:47:15;2.67;;;1.88;;
27491;SDS011;14927;51.210;6.838;2023-02-28T16:50:00;2.92;;;2.42;;
27491;SDS011;14927;51.210;6.838;2023-02-28T16:52:45;3.58;;;2.00;;
27491;SDS011;14927;51.210;6.838;2023-02-28T16:55:30;3.88;;;2.22;;
27491;SDS011;14927;51.210;6.838;2023-02-28T16:58:15;8.27;;;2.60;;
27491;SDS011;14927;51.210;6.838;2023-02-28T17:01:01;4.35;;;1.73;;
27491;SDS011;14927;51.210;6.838;2023-02-28T17:03:46;6.57;;;2.55;;
27491;SDS011;14927;51.210;6.838;2023-02-28T17:06:32;5.13;;;2.45;;
27491;SDS011;14927;51.210;6.838;2023-02-28T17:09:18;3.47;;;2.28;;
27491;SDS011;14927;51.210;6.838;2023-02-28T17:12:10;3.95;;;2.67;;
27491;SDS011;14927;51.210;6.838;2023-02-28T17:14:55;4.00;;;2.38;;
27491;SDS011;14927;51.210;6.838;2023-02-28T17:17:40;3.83;;;2.70;;
27491;SDS011;14927;51.210;6.838;2023-02-28T17:20:25;5.50;;;2.70;;
27491;SDS011;14927;51.210;6.838;2023-02-28T17:23:09;8.13;;;2.58;;
27491;SDS011;14927;51.210;6.838;2023-02-28T17:25:54;3.60;;;2.38;;
27491;SDS011;14927;51.210;6.838;2023-02-28T17:28:39;4.60;;;2.80;;
27491;SDS011;14927;51.210;6.838;2023-02-28T17:31:24;5.55;;;2.92;;
27491;SDS011;14927;51.210;6.838;2023-02-28T17:34:10;4.72;;;2.78;;
27491;SDS011;14927;51.210;6.838;2023-02-28T17:36:54;7.55;;;2.72;;
27491;SDS011;14927;51.210;6.838;2023-02-28T17:39:39;3.97;;;2.65;;
27491;SDS011;14927;51.210;6.838;2023-02-28T17:42:23;5.13;;;2.63;;
27491;SDS011;14927;51.210;6.838;2023-02-28T17:45:08;5.82;;;3.00;;
27491;SDS011;14927;51.210;6.838;2023-02-28T17:47:54;4.97;;;2.97;;
27491;SDS011;14927;51.210;6.838;2023-02-28T17:50:38;4.30;;;3.17;;
27491;SDS011;14927;51.210;6.838;2023-02-28T17:53:23;6.78;;;2.78;;
27491;SDS011;14927;51.210;6.838;2023-02-28T17:56:11;5.82;;;2.60;;
27491;SDS011;14927;51.210;6.838;2023-02-28T17:58:58;6.28;;;3.10;;
27491;SDS011;14927;51.210;6.838;2023-02-28T18:01:43;4.25;;;2.70;;
27491;SDS011;14927;51.210;6.838;2023-02-28T18:04:28;6.57;;;2.80;;
27491;SDS011;14927;51.210;6.838;2023-02-28T18:07:13;6.53;;;3.33;;
27491;SDS011;14927;51.210;6.838;2023-02-28T18:09:58;7.75;;;3.38;;
27491;SDS011;14927;51.210;6.838;2023-02-28T18:12:42;8.07;;;3.08;;
27491;SDS011;14927;51.210;6.838;2023-02-28T18:15:27;9.70;;;3.10;;
27491;SDS011;14927;51.210;6.838;2023-02-28T18:18:11;10.75;;;3.47;;
27491;SDS011;14927;51.210;6.838;2023-02-28T18:20:56;7.15;;;2.90;;
27491;SDS011;14927;51.210;6.838;2023-02-28T18:23:41;7.15;;;3.17;;
27491;SDS011;14927;51.210;6.838;2023-02-28T18:26:31;5.72;;;3.20;;
27491;SDS011;14927;51.210;6.838;2023-02-28T18:29:17;8.32;;;3.30;;
27491;SDS011;14927;51.210;6.838;2023-02-28T18:32:05;8.77;;;3.35;;
27491;SDS011;14927;51.210;6.838;2023-02-28T18:34:49;5.05;;;3.00;;
27491;SDS011;14927;51.210;6.838;2023-02-28T18:37:34;5.32;;;2.97;;
27491;SDS011;14927;51.210;6.838;2023-02-28T18:40:19;5.43;;;2.75;;
27491;SDS011;14927;51.210;6.838;2023-02-28T18:43:04;5.10;;;2.83;;
27491;SDS011;14927;51.210;6.838;2023-02-28T18:45:49;4.93;;;3.10;;
27491;SDS011;14927;51.210;6.838;2023-02-28T18:48:34;7.57;;;3.30;;
27491;SDS011;14927;51.210;6.838;2023-02-28T18:51:21;11.82;;;3.20;;
27491;SDS011;14927;51.210;6.838;2023-02-28T18:54:13;6.25;;;3.08;;
27491;SDS011;14927;51.210;6.838;2023-02-28T18:56:59;8.68;;;3.42;;
27491;SDS011;14927;51.210;6.838;2023-02-28T18:59:43;4.00;;;3.60;;
27491;SDS011;14927;51.210;6.838;2023-02-28T19:02:28;7.28;;;3.17;;
27491;SDS011;14927;51.210;6.838;2023-02-28T19:05:13;8.10;;;4.00;;
27491;SDS011;14927;51.210;6.838;2023-02-28T19:07:58;10.18;;;4.70;;
27491;SDS011;14927;51.210;6.838;2023-02-28T19:10:45;6.97;;;3.90;;
27491;SDS011;14927;51.210;6.838;2023-02-28T19:13:30;6.38;;;4.00;;
27491;SDS011;14927;51.210;6.838;2023-02-28T19:16:16;6.88;;;4.25;;
27491;SDS011;14927;51.210;6.838;2023-02-28T19:19:03;7.20;;;3.55;;
27491;SDS011;14927;51.210;6.838;2023-02-28T19:21:48;8.82;;;4.22;;
27491;SDS011;14927;51.210;6.838;2023-02-28T19:24:33;9.48;;;3.88;;
27491;SDS011;14927;51.210;6.838;2023-02-28T19:27:18;9.68;;;3.95;;
27491;SDS011;14927;51.210;6.838;2023-02-28T19:30:03;9.65;;;4.10;;
27491;SDS011;14927;51.210;6.838;2023-02-28T19:32:49;9.68;;;4.20;;
27491;SDS011;14927;51.210;6.838;2023-02-28T19:35:34;9.90;;;4.75;;